Edgar B Speer — WQZ9670 — position and weather

sailwx.info

Track history (hours):
 
Tides and Currents Weather Stations Pressure Air Temp Water Temp Dewpoint Dewpoint Depression Visibility Wind Speed Wind Dir Waves Ship Positions

Edgar B Speer

Owner: Great Lakes Fleet, Inc, DULUTH, MN. More information available from US FCC via Universal Licensing System and Coast Guard Vessel Documentation Center.

Last reported at 2017-Apr-25 08:30 UTC. Time now 2017-Apr-25 08:47 UTC.
Position N 47°00' W 091°41'.

Length 306 m; draft 8.3 m.

Type: Cargo ship. MMSI: 366971330.

Date/timePositionNaut miles runAvg speedWind from/ knotsBaromVisibWave heightAir tempDewpointWater temp
2017-Apr-25 08:30N 47°00' W 091°41'3 5.9
2017-Apr-25 08:00N 47°00' W 091°36'0 0.0
2017-Apr-24 19:09N 47°00' W 091°36'1 8.3
2017-Apr-24 19:00N 47°00' W 091°38'2 3.5
2017-Apr-24 18:29N 47°00' W 091°41'1 1.7
2017-Apr-24 18:01N 46°60' W 091°41'  
2017-Apr-18 10:37N 47°02' W 091°32'212.0
2017-Apr-18 10:29N 47°02' W 091°34'5 9.6
2017-Apr-18 10:01N 47°00' W 091°40'0 0.0
2017-Apr-17 23:53N 47°01' W 091°40'0 1.1
2017-Apr-17 23:30N 47°00' W 091°40'  
Track history (hours):
 
Tides and Currents Weather Stations Pressure Air Temp Water Temp Dewpoint Dewpoint Depression Visibility Wind Speed Wind Dir Waves Ship Positions

Edgar B Speer

Owner: Great Lakes Fleet, Inc, DULUTH, MN. More information available from US FCC via Universal Licensing System and Coast Guard Vessel Documentation Center.

Last reported at 2017-Apr-25 08:30 UTC. Time now 2017-Apr-25 08:47 UTC.
Position N 47°00' W 091°41'.

Length 306 m; draft 8.3 m.

Type: Cargo ship. MMSI: 366971330.

Date/timePositionNaut miles runAvg speedWind from/ knotsBaromVisibWave heightAir tempDewpointWater temp
2017-Apr-25 08:30N 47°00' W 091°41'3 5.9
2017-Apr-25 08:00N 47°00' W 091°36'0 0.0
2017-Apr-24 19:09N 47°00' W 091°36'1 8.3
2017-Apr-24 19:00N 47°00' W 091°38'2 3.5
2017-Apr-24 18:29N 47°00' W 091°41'1 1.7
2017-Apr-24 18:01N 46°60' W 091°41'  
2017-Apr-18 10:37N 47°02' W 091°32'212.0
2017-Apr-18 10:29N 47°02' W 091°34'5 9.6
2017-Apr-18 10:01N 47°00' W 091°40'0 0.0
2017-Apr-17 23:53N 47°01' W 091°40'0 1.1
2017-Apr-17 23:30N 47°00' W 091°40'  

Dump ship's entire track history